Time;durP1;ratioP1;P1;durP2;ratioP2;P2;SDS_P1;SDS_P2;PMS_P1;PMS_P2;Temp;Humidity;BMP_temperature;BMP_pressure;BME280_temperature;BME280_humidity;BME280_pressure;Samples;Min_cycle;Max_cycle;Signal;HPM_P1;HPM_P2
2022/11/11 00:02:21;;;;;;;;;;;16.60;99.50;;;;;;5099461;28;19972;-91
2022/11/11 00:04:46;;;;;;;;;;;16.50;99.50;;;;;;5099133;28;19916;-91
2022/11/11 00:07:12;;;;;;;;;;;16.50;99.70;;;;;;5117142;28;19916;-91
2022/11/11 00:09:38;;;;;;;;;;;16.50;99.50;;;;;;5100126;28;19908;-91
2022/11/11 00:12:05;;;;;;;;;;;16.50;99.50;;;;;;5099876;28;19908;-91
2022/11/11 00:14:30;;;;;;;;;;;16.50;99.50;;;;;;5099785;28;19918;-91
2022/11/11 00:25:09;;;;;;;;;;;16.50;99.60;;;;;;5117470;28;19982;-91
2022/11/11 00:27:35;;;;;;;;;;;16.50;99.60;;;;;;5099815;28;20181;-91
2022/11/11 00:30:00;;;;;;;;;;;16.50;99.60;;;;;;5100008;28;19915;-91
2022/11/11 00:32:27;;;;;;;;;;;16.50;99.60;;;;;;5098773;28;19912;-91
2022/11/11 00:37:38;;;;;;;;;;;16.50;99.60;;;;;;5115027;28;19965;-91
2022/11/11 00:40:05;;;;;;;;;;;16.40;99.60;;;;;;5098611;28;20002;-91
2022/11/11 00:42:30;;;;;;;;;;;16.40;99.60;;;;;;5097583;28;20318;-91
2022/11/11 00:44:56;;;;;;;;;;;16.40;99.60;;;;;;5096018;28;19915;-91
2022/11/11 00:52:53;;;;;;;;;;;16.40;99.70;;;;;;5116592;28;19973;-91
2022/11/11 00:55:18;;;;;;;;;;;16.40;99.70;;;;;;5099887;28;19916;-92
2022/11/11 00:57:44;;;;;;;;;;;16.40;99.70;;;;;;5097861;28;19973;-91
2022/11/11 01:00:10;;;;;;;;;;;16.40;99.60;;;;;;5117122;28;19908;-91
2022/11/11 01:02:35;;;;;;;;;;;16.40;99.70;;;;;;5099258;28;19908;-91
2022/11/11 01:05:01;;;;;;;;;;;16.40;99.70;;;;;;5132870;27;19908;-91
2022/11/11 01:07:27;;;;;;;;;;;16.40;99.70;;;;;;5098003;28;19969;-91
2022/11/11 01:09:52;;;;;;;;;;;16.40;99.70;;;;;;5097907;28;19911;-91
2022/11/11 01:12:18;;;;;;;;;;;16.40;99.60;;;;;;5114365;28;19924;-92
2022/11/11 01:14:43;;;;;;;;;;;16.40;99.70;;;;;;5097813;28;19911;-91
2022/11/11 01:17:09;;;;;;;;;;;16.40;99.60;;;;;;5097431;28;20031;-91
2022/11/11 01:19:35;;;;;;;;;;;16.40;99.70;;;;;;5096529;28;19907;-91
2022/11/11 01:22:01;;;;;;;;;;;16.40;99.70;;;;;;5096794;28;19907;-91
2022/11/11 01:24:26;;;;;;;;;;;16.40;99.60;;;;;;5097856;28;20012;-91
2022/11/11 01:26:52;;;;;;;;;;;16.40;99.70;;;;;;5115497;28;19907;-91
2022/11/11 01:29:18;;;;;;;;;;;16.30;99.60;;;;;;5098778;28;20002;-91
2022/11/11 01:31:43;;;;;;;;;;;16.30;99.60;;;;;;5131236;27;19908;-91
2022/11/11 01:34:09;;;;;;;;;;;16.30;99.60;;;;;;5114636;28;19916;-91
2022/11/11 01:36:36;;;;;;;;;;;16.30;99.60;;;;;;5098094;28;19912;-91
2022/11/11 01:39:02;;;;;;;;;;;16.30;99.60;;;;;;5098597;28;19915;-91
2022/11/11 01:41:37;;;;;;;;;;;16.30;99.60;;;;;;5097514;28;19908;-91
2022/11/11 01:44:05;;;;;;;;;;;16.30;99.60;;;;;;5099113;28;20193;-91
2022/11/11 01:46:37;;;;;;;;;;;16.30;99.60;;;;;;5099600;28;19908;-91
2022/11/11 01:49:21;;;;;;;;;;;16.30;99.60;;;;;;5098342;28;19908;-91
2022/11/11 01:52:06;;;;;;;;;;;16.30;99.60;;;;;;5099496;28;19943;-91
2022/11/11 01:54:43;;;;;;;;;;;16.30;99.60;;;;;;5098735;28;20306;-91
2022/11/11 01:57:14;;;;;;;;;;;16.30;99.60;;;;;;5102170;28;20219;-91
2022/11/11 01:59:43;;;;;;;;;;;16.30;99.60;;;;;;5102198;28;19908;-91
2022/11/11 02:02:17;;;;;;;;;;;16.30;99.60;;;;;;5101195;28;19962;-91
2022/11/11 02:07:29;;;;;;;;;;;16.30;99.60;;;;;;5119010;28;19914;-91
2022/11/11 02:09:56;;;;;;;;;;;16.30;99.60;;;;;;5102505;28;19911;-91
2022/11/11 02:15:06;;;;;;;;;;;16.30;99.60;;;;;;5119964;28;19914;-91
2022/11/11 02:17:32;;;;;;;;;;;16.30;99.60;;;;;;5102036;28;19912;-92
2022/11/11 02:19:59;;;;;;;;;;;16.30;99.60;;;;;;5101288;28;19916;-91
2022/11/11 02:22:29;;;;;;;;;;;16.20;99.60;;;;;;5102256;28;19907;-91
2022/11/11 02:24:55;;;;;;;;;;;16.30;99.60;;;;;;5101915;28;20196;-91
2022/11/11 02:27:21;;;;;;;;;;;16.30;99.60;;;;;;5102211;28;20297;-91
2022/11/11 02:29:49;;;;;;;;;;;16.30;99.50;;;;;;5102456;28;19907;-91
2022/11/11 02:32:15;;;;;;;;;;;16.30;99.50;;;;;;5113381;28;19919;-91
2022/11/11 02:34:40;;;;;;;;;;;16.20;99.50;;;;;;5095228;28;19915;-91
2022/11/11 02:37:07;;;;;;;;;;;16.20;99.50;;;;;;5096184;28;20300;-91
2022/11/11 02:39:34;;;;;;;;;;;16.30;99.50;;;;;;5096951;28;19947;-91
2022/11/11 02:41:59;;;;;;;;;;;16.30;99.50;;;;;;5095810;28;19908;-91
2022/11/11 02:44:25;;;;;;;;;;;16.20;99.50;;;;;;5097642;28;20235;-91
2022/11/11 02:46:51;;;;;;;;;;;16.20;99.50;;;;;;5098320;28;19919;-91
2022/11/11 02:49:17;;;;;;;;;;;16.30;99.50;;;;;;5100780;28;19969;-91
2022/11/11 02:51:42;;;;;;;;;;;16.20;99.50;;;;;;5100530;28;20303;-91
2022/11/11 02:54:08;;;;;;;;;;;16.20;99.50;;;;;;5101203;28;19907;-91
2022/11/11 02:59:20;;;;;;;;;;;16.20;99.50;;;;;;5119151;28;19915;-91
2022/11/11 03:01:46;;;;;;;;;;;16.20;99.40;;;;;;5119058;28;19908;-91
2022/11/11 03:04:12;;;;;;;;;;;16.20;99.40;;;;;;5101703;28;19912;-91
2022/11/11 03:06:37;;;;;;;;;;;16.20;99.40;;;;;;5100947;28;19930;-91
2022/11/11 03:09:03;;;;;;;;;;;16.20;99.40;;;;;;5101329;28;19907;-91
2022/11/11 03:11:29;;;;;;;;;;;16.20;99.40;;;;;;5101831;28;19969;-91
2022/11/11 03:13:57;;;;;;;;;;;16.20;99.40;;;;;;5101486;28;19969;-92
2022/11/11 03:19:07;;;;;;;;;;;16.20;99.30;;;;;;5118546;28;20177;-91
2022/11/11 03:21:33;;;;;;;;;;;16.20;99.30;;;;;;5101677;28;19935;-91
2022/11/11 03:23:59;;;;;;;;;;;16.20;99.30;;;;;;5101364;28;20289;-91
2022/11/11 03:26:24;;;;;;;;;;;16.20;99.30;;;;;;5101444;28;20319;-92
2022/11/11 03:28:50;;;;;;;;;;;16.20;99.30;;;;;;5101296;28;19938;-92
2022/11/11 03:31:16;;;;;;;;;;;16.20;99.30;;;;;;5101711;28;20229;-92
2022/11/11 03:33:42;;;;;;;;;;;16.20;99.30;;;;;;5100296;28;19941;-91
2022/11/11 03:36:07;;;;;;;;;;;16.10;99.20;;;;;;5101297;28;19912;-91
2022/11/11 03:38:33;;;;;;;;;;;16.10;99.20;;;;;;5100306;28;20156;-91
2022/11/11 03:40:59;;;;;;;;;;;16.10;99.20;;;;;;5100245;28;19919;-91
2022/11/11 03:43:28;;;;;;;;;;;16.10;99.20;;;;;;5100748;28;20007;-91
2022/11/11 03:45:55;;;;;;;;;;;16.10;99.20;;;;;;5100136;28;20505;-91
2022/11/11 03:48:21;;;;;;;;;;;16.10;99.40;;;;;;5100109;28;20017;-92
2022/11/11 03:50:47;;;;;;;;;;;16.10;99.20;;;;;;5099750;28;20307;-91
2022/11/11 03:53:13;;;;;;;;;;;16.10;99.10;;;;;;5098944;28;19907;-91
2022/11/11 03:55:39;;;;;;;;;;;16.10;99.10;;;;;;5098789;28;19922;-91
2022/11/11 03:58:05;;;;;;;;;;;16.10;99.10;;;;;;5098517;28;19943;-92
2022/11/11 04:00:31;;;;;;;;;;;16.10;99.10;;;;;;5099018;28;20028;-91
2022/11/11 04:11:19;;;;;;;;;;;16.10;99.00;;;;;;5115328;28;19985;-91
2022/11/11 04:16:31;;;;;;;;;;;16.10;99.00;;;;;;5115298;28;19961;-91
2022/11/11 04:21:44;;;;;;;;;;;16.10;99.00;;;;;;5115688;28;19923;-92
2022/11/11 04:26:59;;;;;;;;;;;16.10;98.90;;;;;;5116427;28;19918;-92
2022/11/11 04:29:28;;;;;;;;;;;16.10;98.90;;;;;;5115654;28;20281;-91
2022/11/11 04:34:39;;;;;;;;;;;16.10;98.90;;;;;;5112900;28;19981;-91
2022/11/11 04:37:05;;;;;;;;;;;16.10;98.90;;;;;;5095757;28;20261;-92
2022/11/11 04:42:21;;;;;;;;;;;16.10;98.90;;;;;;5129154;27;19911;-90
2022/11/11 04:47:31;;;;;;;;;;;16.10;98.80;;;;;;5132757;27;19984;-89
2022/11/11 04:49:57;;;;;;;;;;;16.10;98.80;;;;;;5133201;27;19946;-90
2022/11/11 04:52:25;;;;;;;;;;;16.10;98.80;;;;;;5115276;28;19911;-90
2022/11/11 04:57:40;;;;;;;;;;;16.00;98.80;;;;;;5132519;27;20008;-90
2022/11/11 05:00:06;;;;;;;;;;;16.10;98.80;;;;;;5114513;27;19907;-90
2022/11/11 05:05:16;;;;;;;;;;;16.00;98.70;;;;;;5129839;27;19972;-89
2022/11/11 05:10:25;;;;;;;;;;;16.00;98.70;;;;;;5132493;27;19978;-90
2022/11/11 05:12:51;;;;;;;;;;;16.00;98.70;;;;;;5131672;27;19951;-89
2022/11/11 05:26:16;;;;;;;;;;;16.00;98.90;;;;;;5129320;27;20022;-89
2022/11/11 05:28:42;;;;;;;;;;;16.00;98.70;;;;;;5110869;28;20344;-89
2022/11/11 05:31:08;;;;;;;;;;;16.00;98.70;;;;;;5129801;27;20380;-90
2022/11/11 05:33:33;;;;;;;;;;;16.00;98.60;;;;;;5145453;27;19907;-89
2022/11/11 05:35:59;;;;;;;;;;;16.00;98.70;;;;;;5107924;28;20016;-89
2022/11/11 05:38:24;;;;;;;;;;;16.00;98.60;;;;;;5109274;28;20006;-89
2022/11/11 05:40:51;;;;;;;;;;;16.00;98.60;;;;;;5107843;27;19922;-90
2022/11/11 05:43:17;;;;;;;;;;;15.90;98.60;;;;;;5106272;28;19908;-89
2022/11/11 05:45:42;;;;;;;;;;;16.00;98.70;;;;;;5125837;27;19914;-90
2022/11/11 05:48:08;;;;;;;;;;;16.00;98.70;;;;;;5109266;27;20002;-89
2022/11/11 05:50:35;;;;;;;;;;;16.00;98.70;;;;;;5107882;28;20187;-90
2022/11/11 05:53:01;;;;;;;;;;;16.10;98.60;;;;;;5100236;28;20251;-89
2022/11/11 05:55:27;;;;;;;;;;;16.10;98.40;;;;;;5095045;28;20402;-89
2022/11/11 05:57:52;;;;;;;;;;;16.20;98.20;;;;;;5095975;28;20230;-89
2022/11/11 06:00:36;;;;;;;;;;;16.30;97.90;;;;;;5098213;28;19912;-91
2022/11/11 06:03:03;;;;;;;;;;;16.40;97.70;;;;;;5090495;28;19908;-92
2022/11/11 06:05:28;;;;;;;;;;;16.50;97.30;;;;;;5095695;28;20068;-91
2022/11/11 06:07:54;;;;;;;;;;;16.60;97.00;;;;;;5081086;28;19943;-92
2022/11/11 06:10:32;;;;;;;;;;;16.70;96.60;;;;;;5087878;28;19919;-92
2022/11/11 06:13:04;;;;;;;;;;;16.90;96.30;;;;;;5111864;28;19908;-91
2022/11/11 06:15:31;;;;;;;;;;;17.00;96.00;;;;;;5093134;28;20289;-92
2022/11/11 06:17:56;;;;;;;;;;;17.00;95.70;;;;;;5092606;28;19908;-91
2022/11/11 06:20:22;;;;;;;;;;;17.10;95.50;;;;;;5092225;28;19908;-92
2022/11/11 06:22:57;;;;;;;;;;;17.10;95.40;;;;;;5092865;28;20181;-91
2022/11/11 06:28:07;;;;;;;;;;;17.10;95.40;;;;;;5093090;28;20061;-92
2022/11/11 06:30:33;;;;;;;;;;;17.00;95.40;;;;;;5092715;28;19922;-92
2022/11/11 06:32:58;;;;;;;;;;;17.00;95.50;;;;;;5090126;28;20275;-92
2022/11/11 06:35:24;;;;;;;;;;;17.00;95.50;;;;;;5087562;28;19908;-92
2022/11/11 06:37:49;;;;;;;;;;;17.00;95.60;;;;;;5087844;28;20195;-91
2022/11/11 06:40:15;;;;;;;;;;;17.00;95.60;;;;;;5088331;28;20014;-92
2022/11/11 06:42:40;;;;;;;;;;;16.90;95.70;;;;;;5087125;28;20192;-92
2022/11/11 06:45:06;;;;;;;;;;;16.90;95.70;;;;;;5087453;28;19914;-91
2022/11/11 06:47:33;;;;;;;;;;;16.90;95.80;;;;;;5089758;28;19907;-91
2022/11/11 06:49:58;;;;;;;;;;;16.80;95.80;;;;;;5089841;28;19919;-91
2022/11/11 06:52:24;;;;;;;;;;;16.80;95.80;;;;;;5107528;28;19919;-92
2022/11/11 06:54:49;;;;;;;;;;;16.80;95.90;;;;;;5093770;28;19951;-92
2022/11/11 06:57:15;;;;;;;;;;;16.80;96.00;;;;;;5089999;28;20002;-92
2022/11/11 06:59:41;;;;;;;;;;;16.70;96.00;;;;;;5088286;28;20419;-92
2022/11/11 07:02:11;;;;;;;;;;;16.70;96.00;;;;;;5086806;28;20084;-92
2022/11/11 07:04:36;;;;;;;;;;;16.70;96.10;;;;;;5105512;28;20286;-92
2022/11/11 07:07:02;;;;;;;;;;;16.70;96.10;;;;;;5108004;28;19908;-92
2022/11/11 07:09:29;;;;;;;;;;;16.60;96.10;;;;;;5090281;28;19907;-92
2022/11/11 07:11:54;;;;;;;;;;;16.70;96.20;;;;;;5091485;28;19911;-92
2022/11/11 07:14:20;;;;;;;;;;;16.60;96.10;;;;;;5123215;27;20026;-92
2022/11/11 07:16:45;;;;;;;;;;;16.70;96.20;;;;;;5089827;28;19914;-91
2022/11/11 07:19:11;;;;;;;;;;;16.60;96.10;;;;;;5089943;28;19952;-91
2022/11/11 07:21:36;;;;;;;;;;;16.70;96.20;;;;;;5096661;22;19974;-10
2022/11/11 07:24:02;;;;;;;;;;;16.70;96.30;;;;;;5070678;28;20061;-12
2022/11/11 07:26:28;;;;;;;;;;;16.70;96.30;;;;;;5089558;28;20249;-10
2022/11/11 07:28:53;;;;;;;;;;;16.70;96.40;;;;;;5090222;28;19908;-10
2022/11/11 07:31:19;;;;;;;;;;;16.70;96.50;;;;;;5071743;28;19948;-10
2022/11/11 07:33:44;;;;;;;;;;;16.70;96.50;;;;;;5090082;28;19908;-10
2022/11/11 07:36:10;;;;;;;;;;;16.70;96.50;;;;;;5080093;28;19914;-9
2022/11/11 07:38:35;;;;;;;;;;;16.80;96.50;;;;;;5073248;28;19916;-10
2022/11/11 07:41:01;;;;;;;;;;;16.80;96.40;;;;;;5088871;28;20305;-10
2022/11/11 07:43:27;;;;;;;;;;;16.80;96.40;;;;;;5087772;28;20007;-10
2022/11/11 07:45:52;;;;;;;;;;;16.90;96.40;;;;;;5089315;28;19943;-10
2022/11/11 07:48:18;;;;;;;;;;;16.90;96.30;;;;;;5081304;28;20164;-10
2022/11/11 07:50:43;;;;;;;;;;;17.00;98.20;;;;;;5086978;28;19919;-9
2022/11/11 07:53:09;;;;;;;;;;;17.00;97.50;;;;;;5051518;28;20114;-10
2022/11/11 07:55:34;;;;;;;;;;;17.10;97.20;;;;;;5089208;28;19947;-10
2022/11/11 07:58:01;;;;;;;;;;;17.10;97.00;;;;;;5089691;28;19912;-8
2022/11/11 08:00:27;;;;;;;;;;;17.20;96.80;;;;;;5068837;28;19908;-11
2022/11/11 08:02:52;;;;;;;;;;;17.30;96.60;;;;;;5086887;28;19908;-9
2022/11/11 08:05:18;;;;;;;;;;;17.40;96.40;;;;;;5086942;28;19912;-8
2022/11/11 08:07:44;;;;;;;;;;;17.50;96.10;;;;;;5086417;28;19908;-10
2022/11/11 08:10:10;;;;;;;;;;;17.50;95.80;;;;;;5070611;28;19918;-10
2022/11/11 08:15:20;;;;;;;;;;;17.70;95.30;;;;;;5085073;28;19932;-9
2022/11/11 08:17:45;;;;;;;;;;;17.80;94.90;;;;;;5070353;28;20165;-10
2022/11/11 08:20:11;;;;;;;;;;;17.90;94.70;;;;;;5084837;28;19968;-10
2022/11/11 08:22:37;;;;;;;;;;;18.00;94.40;;;;;;5080343;28;20023;-10
2022/11/11 08:25:04;;;;;;;;;;;18.00;94.20;;;;;;5087723;28;19916;-10
2022/11/11 08:27:30;;;;;;;;;;;18.00;94.00;;;;;;5069698;28;20084;-10
2022/11/11 08:29:55;;;;;;;;;;;18.10;94.00;;;;;;5070666;28;20014;-10
2022/11/11 08:32:21;;;;;;;;;;;18.10;93.80;;;;;;5088584;28;20160;-9
2022/11/11 08:34:47;;;;;;;;;;;18.10;93.70;;;;;;5088954;28;19977;-11
2022/11/11 08:37:12;;;;;;;;;;;18.20;93.50;;;;;;5088244;28;20116;-10
2022/11/11 08:39:38;;;;;;;;;;;18.30;93.20;;;;;;5085656;28;20221;-10
2022/11/11 08:42:03;;;;;;;;;;;18.30;93.00;;;;;;5069243;28;19958;-9
2022/11/11 08:44:29;;;;;;;;;;;18.40;92.90;;;;;;5072494;28;19916;-10
2022/11/11 08:46:55;;;;;;;;;;;18.40;92.70;;;;;;5071230;28;19927;-10
2022/11/11 08:49:20;;;;;;;;;;;18.40;92.60;;;;;;5076883;28;19919;-9
2022/11/11 08:51:46;;;;;;;;;;;18.50;92.40;;;;;;5093087;28;20266;-10
2022/11/11 08:54:12;;;;;;;;;;;18.60;92.10;;;;;;5092432;28;20427;-10
2022/11/11 08:56:37;;;;;;;;;;;19.00;91.50;;;;;;5078966;28;20364;-11
2022/11/11 08:59:03;;;;;;;;;;;19.60;89.80;;;;;;5083386;28;19944;-9
2022/11/11 09:01:28;;;;;;;;;;;20.00;85.90;;;;;;5092740;28;19947;-10
2022/11/11 09:03:54;;;;;;;;;;;20.40;82.70;;;;;;5095141;28;20192;-10
2022/11/11 09:06:24;;;;;;;;;;;20.40;81.10;;;;;;5094930;28;20173;-10
2022/11/11 09:08:49;;;;;;;;;;;20.60;80.30;;;;;;5096729;28;19944;-10
2022/11/11 09:11:15;;;;;;;;;;;20.80;78.50;;;;;;5097228;28;19978;-10
2022/11/11 09:13:41;;;;;;;;;;;20.90;77.00;;;;;;5079144;28;20014;-10
2022/11/11 09:16:07;;;;;;;;;;;21.00;76.10;;;;;;5096437;28;19959;-10
2022/11/11 09:18:34;;;;;;;;;;;20.90;75.50;;;;;;5095015;28;20251;-10
2022/11/11 09:20:59;;;;;;;;;;;20.80;76.00;;;;;;5094519;28;19912;-9
2022/11/11 09:23:25;;;;;;;;;;;20.50;76.90;;;;;;5079002;28;19964;-10
2022/11/11 09:25:51;;;;;;;;;;;20.30;78.30;;;;;;5078432;28;20300;-10
2022/11/11 09:28:23;;;;;;;;;;;20.00;79.70;;;;;;5097788;28;19916;-10
2022/11/11 09:30:48;;;;;;;;;;;19.90;80.40;;;;;;5099594;28;19942;-10
2022/11/11 09:33:17;;;;;;;;;;;19.80;81.10;;;;;;5099421;28;19908;-10
2022/11/11 09:35:42;;;;;;;;;;;19.70;81.90;;;;;;5099118;28;19908;-10
2022/11/11 09:38:20;;;;;;;;;;;19.70;82.30;;;;;;5098568;28;19923;-10
2022/11/11 09:41:06;;;;;;;;;;;19.60;82.30;;;;;;5096848;28;19988;-11
2022/11/11 09:43:35;;;;;;;;;;;19.70;82.40;;;;;;5098458;28;19998;-11
2022/11/11 09:46:20;;;;;;;;;;;19.60;82.40;;;;;;5097148;28;19908;-9
2022/11/11 09:48:51;;;;;;;;;;;19.60;82.30;;;;;;5099691;28;19916;-9
2022/11/11 09:51:23;;;;;;;;;;;19.60;82.30;;;;;;5099333;28;19943;-10
2022/11/11 09:54:02;;;;;;;;;;;19.60;82.40;;;;;;5082874;28;19998;-10
2022/11/11 09:56:28;;;;;;;;;;;19.60;82.30;;;;;;5081438;28;19919;-9
2022/11/11 09:59:10;;;;;;;;;;;19.60;82.40;;;;;;5115955;28;19908;-10
2022/11/11 10:01:46;;;;;;;;;;;19.60;82.40;;;;;;5061712;28;19908;-9
2022/11/11 10:04:39;;;;;;;;;;;19.60;82.50;;;;;;5079087;28;20319;-10
2022/11/11 10:07:12;;;;;;;;;;;19.60;82.60;;;;;;5056798;28;19908;-10
2022/11/11 10:09:47;;;;;;;;;;;19.50;82.70;;;;;;5081831;28;19948;-10
2022/11/11 10:12:14;;;;;;;;;;;19.50;82.90;;;;;;5098170;28;20385;-10
2022/11/11 10:14:45;;;;;;;;;;;19.50;83.00;;;;;;5097857;28;19915;-11
2022/11/11 10:17:11;;;;;;;;;;;19.50;83.20;;;;;;5095517;28;20166;-11
2022/11/11 10:19:45;;;;;;;;;;;19.50;83.30;;;;;;5098292;28;20304;-10
2022/11/11 10:22:34;;;;;;;;;;;19.40;83.50;;;;;;5099262;28;20021;-11
2022/11/11 10:25:00;;;;;;;;;;;19.40;83.80;;;;;;5084944;28;19912;-9
2022/11/11 10:27:26;;;;;;;;;;;19.40;83.90;;;;;;5098282;28;20158;-10
2022/11/11 10:29:52;;;;;;;;;;;19.40;84.00;;;;;;5115004;28;19908;-10
2022/11/11 10:32:17;;;;;;;;;;;19.40;84.20;;;;;;5099325;28;20174;-11
2022/11/11 10:34:43;;;;;;;;;;;19.30;84.40;;;;;;5094052;28;20336;-9
2022/11/11 10:37:20;;;;;;;;;;;19.30;84.60;;;;;;5098940;28;19934;-10
2022/11/11 10:39:52;;;;;;;;;;;19.30;84.70;;;;;;5099557;28;19907;-10
2022/11/11 10:42:17;;;;;;;;;;;19.30;85.00;;;;;;5119478;28;19915;-10
2022/11/11 10:44:43;;;;;;;;;;;19.30;85.20;;;;;;5100183;28;19961;-11
2022/11/11 10:47:16;;;;;;;;;;;19.20;85.30;;;;;;5098010;28;19916;-10
2022/11/11 10:49:49;;;;;;;;;;;19.20;85.40;;;;;;5083898;28;19919;-10
2022/11/11 10:52:17;;;;;;;;;;;19.20;85.70;;;;;;5113965;28;20033;-10
2022/11/11 10:54:43;;;;;;;;;;;19.20;85.80;;;;;;5097859;28;19908;-10
2022/11/11 10:57:20;;;;;;;;;;;19.10;86.00;;;;;;5095955;28;19998;-12
2022/11/11 10:59:51;;;;;;;;;;;19.10;86.20;;;;;;5059750;28;19912;-10
2022/11/11 11:02:20;;;;;;;;;;;19.10;86.30;;;;;;5059458;28;19916;-10
2022/11/11 11:05:09;;;;;;;;;;;19.20;86.50;;;;;;5095000;28;20284;-10
2022/11/11 11:07:44;;;;;;;;;;;19.10;86.60;;;;;;5051881;28;19912;-11
2022/11/11 11:10:13;;;;;;;;;;;19.10;86.80;;;;;;5113802;28;19908;-9
2022/11/11 11:12:45;;;;;;;;;;;19.10;87.00;;;;;;5079594;28;19912;-10
2022/11/11 11:15:13;;;;;;;;;;;19.10;87.20;;;;;;5097976;28;19919;-9
2022/11/11 11:17:59;;;;;;;;;;;19.00;87.20;;;;;;5092431;28;19966;-10
2022/11/11 11:20:25;;;;;;;;;;;19.00;87.40;;;;;;5050243;28;19908;-9
2022/11/11 11:22:58;;;;;;;;;;;19.00;87.70;;;;;;5081554;28;20229;-9
2022/11/11 11:25:34;;;;;;;;;;;19.00;87.90;;;;;;5097897;28;19999;-10
2022/11/11 11:28:06;;;;;;;;;;;19.00;88.10;;;;;;5092360;28;19920;-9
2022/11/11 11:30:31;;;;;;;;;;;19.00;88.40;;;;;;5097540;28;19912;-9
2022/11/11 11:33:01;;;;;;;;;;;18.90;88.50;;;;;;5091228;28;19973;-11
2022/11/11 11:35:31;;;;;;;;;;;18.90;88.60;;;;;;5096941;28;19954;-10
2022/11/11 11:37:57;;;;;;;;;;;18.90;88.80;;;;;;5114053;28;19919;-9
2022/11/11 11:40:46;;;;;;;;;;;18.90;89.00;;;;;;5080307;28;19908;-10
2022/11/11 11:43:30;;;;;;;;;;;18.90;89.20;;;;;;5081537;28;19912;-9
2022/11/11 11:45:58;;;;;;;;;;;18.90;89.50;;;;;;5097900;28;19908;-10
2022/11/11 11:48:23;;;;;;;;;;;18.80;89.60;;;;;;5096452;28;19908;-9
2022/11/11 11:50:55;;;;;;;;;;;18.80;89.80;;;;;;5096421;28;19922;-9
2022/11/11 11:53:32;;;;;;;;;;;18.80;90.00;;;;;;5096232;28;19908;-10
2022/11/11 11:56:13;;;;;;;;;;;18.80;90.20;;;;;;5096659;28;19908;-9
2022/11/11 11:58:59;;;;;;;;;;;18.70;90.30;;;;;;5095356;28;19916;-9
2022/11/11 12:01:46;;;;;;;;;;;18.70;90.40;;;;;;5096263;28;20002;-10
2022/11/11 12:04:11;;;;;;;;;;;18.70;90.50;;;;;;5095861;28;19999;-9
2022/11/11 12:06:57;;;;;;;;;;;18.70;90.70;;;;;;5093882;28;19999;-11
2022/11/11 12:09:29;;;;;;;;;;;18.60;90.70;;;;;;5094135;28;19919;-10
2022/11/11 12:11:54;;;;;;;;;;;18.60;90.90;;;;;;5082907;28;20186;-9
2022/11/11 12:14:57;;;;;;;;;;;18.60;91.10;;;;;;5076096;28;19916;-10
2022/11/11 12:17:23;;;;;;;;;;;18.60;91.20;;;;;;5012709;28;19920;-10
2022/11/11 12:19:48;;;;;;;;;;;18.50;91.30;;;;;;5045886;28;19912;-10
2022/11/11 12:22:14;;;;;;;;;;;18.50;91.40;;;;;;5088692;28;19916;-11
2022/11/11 12:24:58;;;;;;;;;;;18.50;91.50;;;;;;5094940;28;19908;-9
2022/11/11 12:27:23;;;;;;;;;;;18.50;91.60;;;;;;5094296;28;20009;-10
2022/11/11 12:29:49;;;;;;;;;;;18.50;91.70;;;;;;5083505;28;19944;-12
2022/11/11 12:32:17;;;;;;;;;;;18.50;91.70;;;;;;5094357;28;19928;-9
2022/11/11 12:34:59;;;;;;;;;;;18.50;91.80;;;;;;5095764;28;19919;-10
2022/11/11 12:37:41;;;;;;;;;;;18.40;91.90;;;;;;5094002;28;20425;-10
2022/11/11 12:40:17;;;;;;;;;;;18.40;92.00;;;;;;5083409;28;19920;-10
2022/11/11 12:43:01;;;;;;;;;;;18.40;92.10;;;;;;5076950;28;19927;-10
2022/11/11 12:45:29;;;;;;;;;;;18.40;92.20;;;;;;5077599;28;20272;-10
2022/11/11 12:47:55;;;;;;;;;;;18.40;92.30;;;;;;5095087;28;20252;-9
2022/11/11 12:50:30;;;;;;;;;;;18.40;92.30;;;;;;5094470;28;20319;-10
2022/11/11 12:53:32;;;;;;;;;;;18.40;92.40;;;;;;5077823;28;19908;-10
2022/11/11 12:56:08;;;;;;;;;;;18.40;92.50;;;;;;5032261;28;19991;-9
2022/11/11 12:58:34;;;;;;;;;;;18.30;92.50;;;;;;5069817;28;19908;-10
2022/11/11 13:01:11;;;;;;;;;;;18.40;92.60;;;;;;5094075;28;20187;-9
2022/11/11 13:03:55;;;;;;;;;;;18.30;92.70;;;;;;5089308;28;19908;-10
2022/11/11 13:06:40;;;;;;;;;;;18.30;92.70;;;;;;5090406;28;20460;-10
2022/11/11 13:09:12;;;;;;;;;;;18.30;92.70;;;;;;5088440;28;19908;-10
2022/11/11 13:11:47;;;;;;;;;;;18.30;92.80;;;;;;5090287;28;19995;-10
2022/11/11 13:14:18;;;;;;;;;;;18.30;92.90;;;;;;5087916;28;19923;-10
2022/11/11 13:16:44;;;;;;;;;;;18.30;92.90;;;;;;5088659;28;20174;-10
2022/11/11 13:19:13;;;;;;;;;;;18.20;93.00;;;;;;5088271;28;20339;-10
2022/11/11 13:21:58;;;;;;;;;;;18.20;93.00;;;;;;5083209;28;19916;-10
2022/11/11 13:24:24;;;;;;;;;;;18.20;93.10;;;;;;5115451;28;19912;-10
2022/11/11 13:26:55;;;;;;;;;;;18.20;93.10;;;;;;5081536;28;19969;-12
2022/11/11 13:29:24;;;;;;;;;;;18.20;93.20;;;;;;5089096;28;20363;-10
2022/11/11 13:31:50;;;;;;;;;;;18.20;93.30;;;;;;5090003;28;19920;-10
2022/11/11 13:34:16;;;;;;;;;;;18.20;93.30;;;;;;5071565;28;20176;-10
2022/11/11 13:36:52;;;;;;;;;;;18.20;93.40;;;;;;5089858;28;19935;-10
2022/11/11 13:39:23;;;;;;;;;;;18.20;93.40;;;;;;5089328;28;19975;-10
2022/11/11 13:41:50;;;;;;;;;;;18.10;93.40;;;;;;5088824;28;20110;-10
2022/11/11 13:44:42;;;;;;;;;;;18.10;93.50;;;;;;5103553;28;19969;-10
2022/11/11 13:47:11;;;;;;;;;;;18.10;93.50;;;;;;5087778;28;19909;-8
2022/11/11 13:49:51;;;;;;;;;;;18.10;93.60;;;;;;5071354;28;19934;-11
2022/11/11 13:52:21;;;;;;;;;;;18.10;93.60;;;;;;5089674;28;20023;-10
2022/11/11 13:54:48;;;;;;;;;;;18.10;93.90;;;;;;5087792;28;19918;-10
2022/11/11 13:57:13;;;;;;;;;;;18.10;93.70;;;;;;5071043;28;19909;-9
2022/11/11 13:59:41;;;;;;;;;;;18.10;93.80;;;;;;5094415;28;19919;-10
2022/11/11 14:02:19;;;;;;;;;;;18.10;93.90;;;;;;5098909;28;20223;-9
2022/11/11 14:05:08;;;;;;;;;;;18.00;93.90;;;;;;5098633;28;20348;-10
2022/11/11 14:07:43;;;;;;;;;;;18.00;94.00;;;;;;5078972;28;19955;-10
2022/11/11 14:10:09;;;;;;;;;;;18.00;94.00;;;;;;5070728;28;19916;-10
2022/11/11 14:12:36;;;;;;;;;;;18.00;94.10;;;;;;5085225;28;19955;-11
2022/11/11 14:15:06;;;;;;;;;;;18.00;94.20;;;;;;5068397;28;19908;-9
2022/11/11 14:17:33;;;;;;;;;;;18.00;94.20;;;;;;5065805;28;20031;-10
2022/11/11 14:19:58;;;;;;;;;;;18.00;94.30;;;;;;5089228;28;20091;-10
2022/11/11 14:22:31;;;;;;;;;;;18.00;94.40;;;;;;5069286;28;19959;-8
2022/11/11 14:25:31;;;;;;;;;;;17.90;94.40;;;;;;5068984;28;19977;-9
2022/11/11 14:27:56;;;;;;;;;;;17.90;94.50;;;;;;5054541;28;19920;-10
2022/11/11 14:30:32;;;;;;;;;;;17.90;94.50;;;;;;5070191;28;19916;-10
2022/11/11 14:33:02;;;;;;;;;;;17.90;94.60;;;;;;5068972;28;20300;-10
2022/11/11 14:35:33;;;;;;;;;;;17.90;94.70;;;;;;5066176;28;19908;-8
2022/11/11 14:38:04;;;;;;;;;;;17.90;94.80;;;;;;5068702;28;20497;-10
2022/11/11 14:40:30;;;;;;;;;;;17.80;94.80;;;;;;5084764;28;20011;-10
2022/11/11 14:42:56;;;;;;;;;;;17.80;94.90;;;;;;5063796;28;20233;-10
2022/11/11 14:45:22;;;;;;;;;;;17.80;95.00;;;;;;5059719;28;20018;-10
2022/11/11 14:47:48;;;;;;;;;;;17.80;95.00;;;;;;5067266;28;20080;-10
2022/11/11 14:50:26;;;;;;;;;;;17.80;95.10;;;;;;5068248;28;19918;-11
2022/11/11 14:52:53;;;;;;;;;;;17.80;95.20;;;;;;5069425;28;20018;-10
2022/11/11 14:55:21;;;;;;;;;;;17.80;95.20;;;;;;5085351;28;20081;-10
2022/11/11 14:57:51;;;;;;;;;;;17.80;95.40;;;;;;5086202;28;19908;-10
2022/11/11 15:00:18;;;;;;;;;;;17.70;95.40;;;;;;5083566;28;20069;-11
2022/11/11 15:02:47;;;;;;;;;;;17.70;95.40;;;;;;5067225;28;20286;-10
2022/11/11 15:05:42;;;;;;;;;;;17.70;95.50;;;;;;5067472;28;19912;-11
2022/11/11 15:08:19;;;;;;;;;;;17.70;95.60;;;;;;5072071;28;19916;-10
2022/11/11 15:10:44;;;;;;;;;;;17.70;95.60;;;;;;5069176;28;19948;-10
2022/11/11 15:13:37;;;;;;;;;;;17.70;95.70;;;;;;5086948;28;20178;-10
2022/11/11 15:16:09;;;;;;;;;;;17.70;95.80;;;;;;5064256;28;19947;-10
2022/11/11 15:18:53;;;;;;;;;;;17.70;95.80;;;;;;5079636;28;20249;-9
2022/11/11 15:21:18;;;;;;;;;;;17.60;95.80;;;;;;5089089;28;20268;-9
2022/11/11 15:24:02;;;;;;;;;;;17.60;95.90;;;;;;5090102;28;19912;-10
2022/11/11 15:26:27;;;;;;;;;;;17.60;96.00;;;;;;5071286;28;19919;-10
2022/11/11 15:29:03;;;;;;;;;;;17.60;96.10;;;;;;5089052;28;19908;-10
2022/11/11 15:31:40;;;;;;;;;;;17.60;96.20;;;;;;5089286;28;20018;-10
2022/11/11 15:34:08;;;;;;;;;;;17.60;96.20;;;;;;5069836;28;19973;-10
2022/11/11 15:36:35;;;;;;;;;;;17.50;96.20;;;;;;5066790;28;19943;-10
2022/11/11 15:39:04;;;;;;;;;;;17.50;96.30;;;;;;5085309;28;20015;-10
2022/11/11 15:41:35;;;;;;;;;;;17.50;96.40;;;;;;5066778;28;20396;-10
2022/11/11 15:44:01;;;;;;;;;;;17.50;96.40;;;;;;5066292;28;20172;-9
2022/11/11 15:46:28;;;;;;;;;;;17.50;96.50;;;;;;5073649;28;19908;-10
2022/11/11 15:48:54;;;;;;;;;;;17.50;96.60;;;;;;5083196;28;20024;-10